createdAt,value
2023-05-10T00:00:33.174Z,14.3
2023-05-10T00:02:43.624Z,16.4
2023-05-10T00:04:49.240Z,13.3
2023-05-10T00:06:55.023Z,15.3
2023-05-10T00:11:06.553Z,15.9
2023-05-10T00:13:12.395Z,17
2023-05-10T00:15:18.066Z,18
2023-05-10T00:17:26.896Z,20.8
2023-05-10T00:19:32.561Z,22.1
2023-05-10T00:25:49.850Z,24.3
2023-05-10T00:27:55.596Z,23
2023-05-10T00:30:01.366Z,17.8
2023-05-10T00:36:21.646Z,23.7
2023-05-10T00:40:33.166Z,26.2
2023-05-10T00:51:04.939Z,27.5
2023-05-10T00:52:09.319Z,26.6
2023-05-10T00:54:15.094Z,32.1
2023-05-10T01:00:35.371Z,32.2
2023-05-10T01:02:41.260Z,27
2023-05-10T01:06:52.674Z,38.2
2023-05-10T01:13:10.018Z,41.1
2023-05-10T01:15:18.694Z,48.5
2023-05-10T01:17:24.502Z,44.8
2023-05-10T01:19:30.224Z,43.8
2023-05-10T01:21:35.997Z,40.2
2023-05-10T01:23:41.750Z,43.5
2023-05-10T01:25:47.514Z,47.2
2023-05-10T01:27:53.277Z,49.8
2023-05-10T01:34:13.559Z,48.4
2023-05-10T01:36:19.315Z,47.8
2023-05-10T01:50:01.243Z,52.4
2023-05-10T01:52:07.019Z,53
2023-05-10T01:54:12.773Z,60.9
2023-05-10T01:56:18.549Z,64.2
2023-05-10T01:58:27.248Z,51.7
2023-05-10T02:00:33.106Z,60.7
2023-05-10T02:02:38.858Z,68.5
2023-05-10T02:19:27.943Z,55.5
2023-05-10T02:23:39.460Z,58.4
2023-05-10T02:32:05.553Z,67.2
2023-05-10T02:34:11.288Z,52.7
2023-05-10T02:42:37.322Z,79.6
2023-05-10T02:44:43.091Z,79.8
2023-05-10T02:46:48.905Z,81.5
2023-05-10T02:49:59.031Z,88.7
2023-05-10T02:52:04.793Z,82.9
2023-05-10T02:54:10.558Z,87.8
2023-05-10T03:02:36.625Z,81.6
2023-05-10T03:04:42.385Z,79.7
2023-05-10T03:06:48.138Z,84.4
2023-05-10T03:11:02.622Z,107.6
2023-05-10T03:13:08.534Z,91.8
2023-05-10T03:15:14.177Z,83.3
2023-05-10T03:25:45.964Z,87.2
2023-05-10T03:32:03.249Z,76.9
2023-05-10T03:40:29.274Z,85.8
2023-05-10T03:42:35.034Z,100
2023-05-10T03:47:12.082Z,92.6
2023-05-10T03:49:17.858Z,78.3
2023-05-10T03:51:23.650Z,79.6
2023-05-10T04:01:55.445Z,71.7
2023-05-10T04:08:15.722Z,75
2023-05-10T04:10:21.466Z,83.7
2023-05-10T04:12:27.248Z,74.3
2023-05-10T04:14:33.011Z,78.9
2023-05-10T04:16:38.771Z,64
2023-05-10T04:18:44.530Z,65.5
2023-05-10T04:20:50.300Z,75.2
2023-05-10T04:22:59.029Z,75.4
2023-05-10T04:25:04.800Z,71.7
2023-05-10T04:27:10.550Z,85.3
2023-05-10T04:29:16.316Z,71.7
2023-05-10T04:31:22.184Z,65.1
2023-05-10T04:33:27.821Z,74.9
2023-05-10T04:37:42.340Z,72.6
2023-05-10T04:39:48.108Z,66.1
2023-05-10T04:41:53.866Z,68.3
2023-05-10T04:42:58.235Z,85.5
2023-05-10T04:47:12.005Z,74.5
2023-05-10T04:49:15.516Z,73.9
2023-05-10T04:51:24.257Z,83.6
2023-05-10T04:53:30.017Z,101.5
2023-05-10T05:14:30.658Z,124.5
2023-05-10T05:20:50.952Z,130.4
2023-05-10T05:22:56.697Z,144.2
2023-05-10T05:25:02.479Z,112.8
2023-05-10T05:27:08.236Z,123.7
2023-05-10T05:31:19.787Z,122.9
2023-05-10T05:33:25.502Z,117.9
2023-05-10T05:35:34.239Z,124.7
2023-05-10T05:37:40.005Z,93.4
2023-05-10T05:39:45.759Z,128.8
2023-05-10T05:40:50.140Z,114.1
2023-05-10T05:42:55.927Z,111.4
2023-05-10T05:47:07.431Z,133.2
2023-05-10T05:49:16.162Z,137.9
2023-05-10T05:51:21.921Z,120.7
2023-05-10T05:53:27.658Z,125.5
2023-05-10T06:01:50.772Z,117.4
2023-05-10T06:04:01.268Z,124.3
2023-05-10T06:06:06.776Z,98.8
2023-05-10T06:08:12.551Z,90.8
2023-05-10T06:14:29.816Z,113.4
2023-05-10T06:18:44.338Z,92.8
2023-05-10T06:22:55.872Z,86
2023-05-10T06:25:01.621Z,85
2023-05-10T06:27:07.400Z,79.4
2023-05-10T06:29:13.138Z,91.6
2023-05-10T06:33:27.649Z,100.3
2023-05-10T06:35:33.421Z,103.4
2023-05-10T06:37:39.212Z,109
2023-05-10T06:38:43.548Z,96.9
2023-05-10T06:40:49.308Z,101.7
2023-05-10T06:42:55.101Z,89.3
2023-05-10T06:45:00.831Z,108.2
2023-05-10T06:57:38.443Z,112.7
2023-05-10T07:03:58.708Z,76
2023-05-10T07:08:10.247Z,83.9
2023-05-10T07:12:21.830Z,85.9
2023-05-10T07:14:27.545Z,81.8
2023-05-10T07:18:42.100Z,86.4
2023-05-10T07:20:47.856Z,80.8
2023-05-10T07:22:53.597Z,77.7
2023-05-10T07:27:05.126Z,70.8
2023-05-10T07:29:10.882Z,87.2
2023-05-10T07:31:19.632Z,89
2023-05-10T07:35:31.186Z,77.2
2023-05-10T07:38:02.481Z,80.5
2023-05-10T07:40:08.249Z,58.9
2023-05-10T07:42:14.005Z,74.8
2023-05-10T07:44:22.786Z,78.3
2023-05-10T07:52:45.805Z,66
2023-05-10T07:54:51.582Z,42.9
2023-05-10T07:56:57.368Z,54.8
2023-05-10T07:59:06.139Z,43.1
2023-05-10T08:01:11.906Z,41.1
2023-05-10T08:03:17.809Z,47.9
2023-05-10T08:05:23.466Z,40.6
2023-05-10T08:07:29.231Z,39.2
2023-05-10T08:24:18.389Z,30.4
2023-05-10T08:26:24.133Z,32.7
2023-05-10T08:28:32.905Z,34.8
2023-05-10T08:30:38.686Z,28.9
2023-05-10T08:32:44.470Z,21.7
2023-05-10T08:33:48.854Z,28.1
2023-05-10T08:38:00.405Z,31.4
2023-05-10T08:40:06.193Z,26.5
2023-05-10T08:42:14.923Z,25.9
2023-05-10T08:46:26.576Z,19.5
2023-05-10T08:50:38.046Z,28.5
2023-05-10T08:52:43.856Z,37
2023-05-10T08:54:49.594Z,27.2
2023-05-10T08:56:58.328Z,35.3
2023-05-10T09:05:21.487Z,26.3
2023-05-10T09:07:27.214Z,20.3
2023-05-10T09:09:32.974Z,35.2
2023-05-10T09:11:41.698Z,51.2
2023-05-10T09:13:47.480Z,27
2023-05-10T09:15:53.221Z,25
2023-05-10T09:17:59.033Z,30.6
2023-05-10T09:22:10.576Z,14.5
2023-05-10T09:31:41.024Z,24.6
2023-05-10T09:33:46.832Z,31.7
2023-05-10T09:35:52.570Z,18.4
2023-05-10T09:52:41.743Z,18.1
2023-05-10T09:54:50.487Z,26.8
2023-05-10T09:56:56.256Z,17.4
2023-05-10T10:03:13.587Z,25
2023-05-10T10:05:19.469Z,22.1
2023-05-10T10:11:39.734Z,14
2023-05-10T10:13:45.452Z,16.8
2023-05-10T10:15:51.309Z,16
2023-05-10T10:17:57.127Z,17.5
2023-05-10T10:20:02.828Z,20.4
2023-05-10T10:24:17.312Z,20.9
2023-05-10T10:26:23.105Z,15
2023-05-10T10:29:33.236Z,8.9
2023-05-10T10:31:39.106Z,15.5
2023-05-10T10:35:50.590Z,10
2023-05-10T10:37:59.346Z,11.1
2023-05-10T10:40:05.099Z,10.8
2023-05-10T10:42:10.892Z,10.5
2023-05-10T10:46:22.451Z,22.1
2023-05-10T10:48:28.187Z,8.5
2023-05-10T10:50:33.984Z,11.9
2023-05-10T10:56:54.289Z,7.3
2023-05-10T10:59:00.056Z,13.1
2023-05-10T11:01:05.904Z,7.6
2023-05-10T11:03:11.675Z,7.3
2023-05-10T11:05:17.617Z,4.7
2023-05-10T11:07:26.134Z,12.4
2023-05-10T11:09:31.913Z,4.2
2023-05-10T11:11:37.720Z,6.3
2023-05-10T11:13:43.466Z,4.2
2023-05-10T11:15:49.242Z,6.9
2023-05-10T11:17:55.049Z,7.1
2023-05-10T11:20:00.766Z,13.5
2023-05-10T11:22:09.554Z,15.1
2023-05-10T11:24:15.337Z,7.7
2023-05-10T11:26:21.074Z,8.3
2023-05-10T11:28:52.328Z,11.3
2023-05-10T11:30:58.120Z,16.6
2023-05-10T11:33:03.888Z,4.6
2023-05-10T11:35:12.600Z,10
2023-05-10T11:37:18.374Z,6.8
2023-05-10T11:39:24.189Z,5.4
2023-05-10T11:41:29.944Z,6.6
2023-05-10T11:43:35.732Z,32.9
2023-05-10T11:45:41.468Z,6.9
2023-05-10T11:47:47.312Z,7.4
2023-05-10T11:49:55.983Z,6
2023-05-10T11:52:01.750Z,2.6
2023-05-10T12:04:39.353Z,6.3
2023-05-10T12:06:46.688Z,6.2
2023-05-10T12:10:58.188Z,4.3
2023-05-10T12:13:03.984Z,8.8
2023-05-10T12:15:09.733Z,5.5
2023-05-10T12:17:15.517Z,3.7
2023-05-10T12:24:40.156Z,4.8
2023-05-10T12:30:57.451Z,11.9
2023-05-10T12:33:06.262Z,9.5
2023-05-10T12:35:11.956Z,5.7
2023-05-10T12:37:17.739Z,13.3
2023-05-10T12:39:23.539Z,8.6
2023-05-10T12:41:29.303Z,6.8
2023-05-10T12:47:49.614Z,4.9
2023-05-10T12:49:55.351Z,7.9
2023-05-10T12:52:01.140Z,9.5
2023-05-10T12:58:34.396Z,7.5
2023-05-10T13:00:24.233Z,6.1
2023-05-10T13:02:32.984Z,10.8
2023-05-10T13:04:38.783Z,6.5
2023-05-10T13:08:50.268Z,10.7
2023-05-10T13:10:56.061Z,8.6
2023-05-10T13:13:01.831Z,5.3
2023-05-10T13:15:07.604Z,7
2023-05-10T13:17:16.430Z,12.7
2023-05-10T13:21:27.887Z,6.7
2023-05-10T13:22:39.853Z,19.7
2023-05-10T13:26:43.801Z,7.5
2023-05-10T13:28:49.572Z,6.4
2023-05-10T13:30:58.353Z,15.2
2023-05-10T13:33:04.124Z,32.6
2023-05-10T13:35:09.822Z,13.2
2023-05-10T13:37:15.601Z,19.2
2023-05-10T13:39:21.376Z,7.1
2023-05-10T13:41:27.156Z,7.3
2023-05-10T13:47:47.496Z,9.2
2023-05-10T13:54:04.771Z,7.4
2023-05-10T13:56:10.526Z,20
2023-05-10T13:58:16.299Z,10.5
2023-05-10T14:00:25.059Z,6.6
2023-05-10T14:02:30.938Z,9.9
2023-05-10T14:04:36.583Z,12.8
2023-05-10T14:06:42.361Z,5.4
2023-05-10T14:08:48.189Z,13.3
2023-05-10T14:12:59.668Z,8.5
2023-05-10T14:15:08.420Z,13.9
2023-05-10T14:17:14.195Z,6.2
2023-05-10T14:19:19.973Z,7.8
2023-05-10T14:20:24.336Z,10.2
2023-05-10T14:22:30.097Z,6.9
2023-05-10T14:24:35.871Z,11.3
2023-05-10T14:26:41.641Z,7.3
2023-05-10T14:28:50.402Z,7.7
2023-05-10T14:30:56.150Z,7.7
2023-05-10T14:33:01.947Z,7.1
2023-05-10T14:35:08.268Z,8.9
2023-05-10T14:37:13.445Z,12.3
2023-05-10T14:39:19.235Z,5.3
2023-05-10T14:41:24.996Z,7.8
2023-05-10T14:43:33.736Z,7.8
2023-05-10T14:45:39.562Z,6.4
2023-05-10T14:47:45.262Z,9.9
2023-05-10T14:51:56.782Z,6.3
2023-05-10T14:58:17.059Z,5.2
2023-05-10T15:00:22.824Z,9.7
2023-05-10T15:13:00.449Z,8.6
2023-05-10T15:17:12.004Z,8.6
2023-05-10T15:19:43.267Z,11.2
2023-05-10T15:21:49.041Z,16.7
2023-05-10T15:23:54.817Z,8
2023-05-10T15:28:09.345Z,9.4
2023-05-10T15:30:15.138Z,12.9
2023-05-10T15:36:32.464Z,10.6
2023-05-10T15:40:47.009Z,7.8
2023-05-10T15:42:52.785Z,22.9
2023-05-10T15:44:58.540Z,15.4
2023-05-10T15:47:04.400Z,18
2023-05-10T15:51:15.880Z,12
2023-05-10T15:53:21.662Z,15.9
2023-05-10T15:55:30.404Z,20.7
2023-05-10T15:59:41.969Z,12.5
2023-05-10T16:01:47.810Z,13.4
2023-05-10T16:03:53.540Z,15.7
2023-05-10T16:05:59.320Z,11.5
2023-05-10T16:08:05.116Z,20.4
2023-05-10T16:10:13.865Z,18.1
2023-05-10T16:12:19.648Z,13.7
2023-05-10T16:14:25.397Z,21.6
2023-05-10T16:15:29.807Z,15.7
2023-05-10T16:19:41.365Z,15
2023-05-10T16:23:55.896Z,23.3
2023-05-10T16:26:01.675Z,17.4
2023-05-10T16:28:07.440Z,15.2
2023-05-10T16:30:13.243Z,22.4
2023-05-10T16:32:19.024Z,17.1
2023-05-10T16:34:24.793Z,13.2
2023-05-10T16:47:02.455Z,25.1
2023-05-10T16:51:14.029Z,18.1
2023-05-10T16:53:22.763Z,28
2023-05-10T16:55:28.595Z,18.2
2023-05-10T16:57:34.365Z,15.6
2023-05-10T16:59:40.122Z,18.1
2023-05-10T17:01:45.925Z,19.1
2023-05-10T17:03:51.819Z,18.4
2023-05-10T17:05:57.472Z,11.8
2023-05-10T17:08:06.197Z,19.1
2023-05-10T17:10:11.977Z,19
2023-05-10T17:13:22.106Z,17.4
2023-05-10T17:15:27.935Z,12.4
2023-05-10T17:19:39.443Z,17.3
2023-05-10T17:21:48.184Z,15.8
2023-05-10T17:23:53.970Z,21.2
2023-05-10T17:26:01.694Z,15.8
2023-05-10T17:32:17.101Z,15.3
2023-05-10T17:34:22.925Z,11.6
2023-05-10T17:36:31.649Z,15.4
2023-05-10T17:38:37.456Z,12.4
2023-05-10T17:40:43.205Z,16.2
2023-05-10T17:42:48.987Z,10
2023-05-10T17:44:54.783Z,11.3
2023-05-10T17:51:15.066Z,12.6
2023-05-10T17:53:20.884Z,15.9
2023-05-10T17:55:26.636Z,19.1
2023-05-10T17:57:32.441Z,11.8
2023-05-10T17:59:38.220Z,19
2023-05-10T18:01:44.161Z,14.3
2023-05-10T18:05:58.618Z,22.4
2023-05-10T18:08:04.356Z,11.1
2023-05-10T18:10:11.745Z,17.9
2023-05-10T18:13:21.848Z,15.8
2023-05-10T18:17:33.488Z,13.4
2023-05-10T18:19:42.155Z,9.5
2023-05-10T18:21:47.928Z,9
2023-05-10T18:30:11.075Z,21.3
2023-05-10T18:32:16.846Z,13.6
2023-05-10T18:34:25.598Z,13.8
2023-05-10T18:36:31.367Z,28.3
2023-05-10T18:38:37.164Z,11.5
2023-05-10T18:40:42.967Z,8.5
2023-05-10T18:42:48.724Z,13.1
2023-05-10T18:44:54.493Z,11.5
2023-05-10T18:47:00.294Z,11.6
2023-05-10T18:49:09.042Z,10
2023-05-10T18:51:14.831Z,9.7
2023-05-10T18:53:20.612Z,24.9
2023-05-10T18:55:26.375Z,16.4
2023-05-10T18:57:32.170Z,12.7
2023-05-10T18:59:37.963Z,14.5
2023-05-10T19:01:44.704Z,19.5
2023-05-10T19:14:47.842Z,37.9
2023-05-10T19:16:56.582Z,15.8
2023-05-10T19:23:14.961Z,23.2
2023-05-10T19:25:19.838Z,21.5
2023-05-10T19:27:25.464Z,15.7
2023-05-10T19:29:31.207Z,23.5
2023-05-10T19:40:03.034Z,22
2023-05-10T19:42:08.788Z,28.5
2023-05-10T19:44:14.574Z,28.2
2023-05-10T19:46:23.372Z,34.9
2023-05-10T19:48:29.108Z,29.9
2023-05-10T19:50:34.876Z,30.6
2023-05-10T19:52:40.668Z,28.1
2023-05-10T19:58:57.966Z,20.6
2023-05-10T20:06:22.657Z,18.9
2023-05-10T20:08:28.421Z,29.2
2023-05-10T20:10:34.206Z,22.2
2023-05-10T20:12:39.967Z,26.7
2023-05-10T20:14:48.715Z,30.7
2023-05-10T20:16:54.525Z,20.5
2023-05-10T20:19:00.327Z,20.3
2023-05-10T20:21:06.050Z,23.8
2023-05-10T20:25:17.614Z,17.1
2023-05-10T20:27:23.377Z,20.7
2023-05-10T20:29:32.109Z,21
2023-05-10T20:33:43.676Z,34
2023-05-10T20:35:49.463Z,20.9
2023-05-10T20:40:01.014Z,21.6
2023-05-10T20:42:06.808Z,22.8
2023-05-10T20:44:15.542Z,21.5
2023-05-10T20:46:21.399Z,20
2023-05-10T20:48:27.108Z,18.3
2023-05-10T20:54:44.431Z,21.4
2023-05-10T20:56:50.225Z,18.6
2023-05-10T21:01:04.753Z,15.4
2023-05-10T21:03:10.579Z,19.4
2023-05-10T21:04:14.895Z,21.3
2023-05-10T21:14:46.759Z,18.5
2023-05-10T21:16:52.540Z,16.6
2023-05-10T21:18:58.411Z,16.1
2023-05-10T21:21:04.090Z,18.6
2023-05-10T21:23:09.881Z,21.5
2023-05-10T21:27:24.388Z,18.6
2023-05-10T21:29:30.154Z,15.2
2023-05-10T21:31:35.970Z,15.8
2023-05-10T21:37:53.274Z,14
2023-05-10T21:39:59.049Z,18.2
2023-05-10T21:42:07.812Z,12.6
2023-05-10T21:46:19.437Z,22
2023-05-10T21:48:25.118Z,15.7
2023-05-10T21:50:30.876Z,22.3
2023-05-10T21:52:36.661Z,19.9
2023-05-10T21:54:42.425Z,20.7
2023-05-10T22:02:07.140Z,17.8
2023-05-10T22:04:12.852Z,17.7
2023-05-10T22:06:18.616Z,53.9
2023-05-10T22:08:24.396Z,16.4
2023-05-10T22:10:33.136Z,17.2
2023-05-10T22:12:38.881Z,16.9
2023-05-10T22:14:44.648Z,18.2
2023-05-10T22:16:50.521Z,15.7
2023-05-10T22:18:56.249Z,14.4
2023-05-10T22:21:01.943Z,17.4
2023-05-10T22:25:16.457Z,17
2023-05-10T22:27:22.270Z,14.5
2023-05-10T22:31:33.896Z,17.4
2023-05-10T22:42:05.559Z,20.7
2023-05-10T22:44:11.321Z,14.4
2023-05-10T22:46:17.147Z,21.6
2023-05-10T22:48:22.852Z,13.1
2023-05-10T22:50:28.618Z,14.4
2023-05-10T22:52:34.392Z,27.4
2023-05-10T22:54:43.143Z,15.9
2023-05-10T22:56:48.910Z,20.7
2023-05-10T22:58:54.677Z,14.6
2023-05-10T23:09:52.008Z,22.7
2023-05-10T23:11:57.775Z,15.8
2023-05-10T23:14:03.557Z,19.6
2023-05-10T23:18:15.049Z,20.8
2023-05-10T23:22:29.566Z,17.3
2023-05-10T23:24:35.303Z,19.6
2023-05-10T23:28:46.846Z,17.4
2023-05-10T23:30:52.607Z,18.2
2023-05-10T23:32:58.381Z,16.4
2023-05-10T23:35:04.101Z,19.8
2023-05-10T23:37:12.862Z,35.4
2023-05-10T23:39:18.621Z,18.5
2023-05-10T23:43:30.155Z,28.5
2023-05-10T23:45:35.975Z,17.6
2023-05-10T23:47:41.767Z,20.2
2023-05-10T23:49:47.446Z,16.8
2023-05-10T23:56:07.720Z,15.1
2023-05-10T23:57:12.072Z,19.1
